sensor_id;sensor_type;location;lat;lon;timestamp;P1;durP1;ratioP1;P2;durP2;ratioP2
15889;SDS011;8043;49.388;12.128;2023-10-19T00:04:58;16.62;;;8.78;;
15889;SDS011;8043;49.388;12.128;2023-10-19T00:10:01;12.10;;;7.03;;
15889;SDS011;8043;49.388;12.128;2023-10-19T00:15:05;17.23;;;8.88;;
15889;SDS011;8043;49.388;12.128;2023-10-19T00:20:09;19.95;;;8.68;;
15889;SDS011;8043;49.388;12.128;2023-10-19T00:25:30;27.37;;;8.43;;
15889;SDS011;8043;49.388;12.128;2023-10-19T00:30:34;19.45;;;8.80;;
15889;SDS011;8043;49.388;12.128;2023-10-19T00:35:37;17.73;;;8.23;;
15889;SDS011;8043;49.388;12.128;2023-10-19T00:40:41;24.53;;;9.07;;
15889;SDS011;8043;49.388;12.128;2023-10-19T00:45:45;19.98;;;9.10;;
15889;SDS011;8043;49.388;12.128;2023-10-19T00:50:49;13.38;;;6.95;;
15889;SDS011;8043;49.388;12.128;2023-10-19T00:55:55;14.30;;;8.05;;
15889;SDS011;8043;49.388;12.128;2023-10-19T01:01:00;20.77;;;8.78;;
15889;SDS011;8043;49.388;12.128;2023-10-19T01:06:05;16.87;;;8.98;;
15889;SDS011;8043;49.388;12.128;2023-10-19T01:11:12;14.60;;;7.45;;
15889;SDS011;8043;49.388;12.128;2023-10-19T01:16:17;17.92;;;8.25;;
15889;SDS011;8043;49.388;12.128;2023-10-19T01:21:23;19.95;;;9.88;;
15889;SDS011;8043;49.388;12.128;2023-10-19T01:26:29;20.32;;;9.05;;
15889;SDS011;8043;49.388;12.128;2023-10-19T01:31:31;19.65;;;10.05;;
15889;SDS011;8043;49.388;12.128;2023-10-19T01:36:35;26.70;;;10.38;;
15889;SDS011;8043;49.388;12.128;2023-10-19T01:41:44;18.55;;;8.75;;
15889;SDS011;8043;49.388;12.128;2023-10-19T01:46:47;19.15;;;8.73;;
15889;SDS011;8043;49.388;12.128;2023-10-19T01:56:54;21.65;;;9.28;;
15889;SDS011;8043;49.388;12.128;2023-10-19T02:01:57;24.75;;;10.20;;
15889;SDS011;8043;49.388;12.128;2023-10-19T02:07:00;19.57;;;9.33;;
15889;SDS011;8043;49.388;12.128;2023-10-19T02:12:03;23.45;;;10.05;;
15889;SDS011;8043;49.388;12.128;2023-10-19T02:17:08;19.45;;;8.25;;
15889;SDS011;8043;49.388;12.128;2023-10-19T02:22:10;21.35;;;8.90;;
15889;SDS011;8043;49.388;12.128;2023-10-19T02:27:13;23.87;;;9.85;;
15889;SDS011;8043;49.388;12.128;2023-10-19T02:32:15;18.85;;;8.38;;
15889;SDS011;8043;49.388;12.128;2023-10-19T02:37:19;19.75;;;10.55;;
15889;SDS011;8043;49.388;12.128;2023-10-19T02:42:23;24.75;;;10.05;;
15889;SDS011;8043;49.388;12.128;2023-10-19T02:47:25;23.80;;;9.48;;
15889;SDS011;8043;49.388;12.128;2023-10-19T02:52:29;16.35;;;7.92;;
15889;SDS011;8043;49.388;12.128;2023-10-19T02:57:32;24.43;;;10.80;;
15889;SDS011;8043;49.388;12.128;2023-10-19T03:02:34;19.07;;;10.03;;
15889;SDS011;8043;49.388;12.128;2023-10-19T03:07:37;18.50;;;8.68;;
15889;SDS011;8043;49.388;12.128;2023-10-19T03:12:39;19.60;;;9.65;;
15889;SDS011;8043;49.388;12.128;2023-10-19T03:17:43;28.42;;;8.43;;
15889;SDS011;8043;49.388;12.128;2023-10-19T03:22:46;25.75;;;9.13;;
15889;SDS011;8043;49.388;12.128;2023-10-19T03:27:49;20.10;;;10.20;;
15889;SDS011;8043;49.388;12.128;2023-10-19T03:32:51;27.22;;;9.68;;
15889;SDS011;8043;49.388;12.128;2023-10-19T03:37:54;26.35;;;9.55;;
15889;SDS011;8043;49.388;12.128;2023-10-19T03:42:58;21.00;;;10.32;;
15889;SDS011;8043;49.388;12.128;2023-10-19T03:48:02;21.68;;;9.13;;
15889;SDS011;8043;49.388;12.128;2023-10-19T03:53:25;26.95;;;10.43;;
15889;SDS011;8043;49.388;12.128;2023-10-19T03:58:28;25.65;;;8.93;;
15889;SDS011;8043;49.388;12.128;2023-10-19T04:03:31;17.90;;;9.83;;
15889;SDS011;8043;49.388;12.128;2023-10-19T04:08:35;24.80;;;11.40;;
15889;SDS011;8043;49.388;12.128;2023-10-19T04:13:38;25.15;;;11.55;;
15889;SDS011;8043;49.388;12.128;2023-10-19T04:28:47;22.05;;;9.55;;
15889;SDS011;8043;49.388;12.128;2023-10-19T04:33:52;26.97;;;10.60;;
15889;SDS011;8043;49.388;12.128;2023-10-19T04:38:55;32.43;;;12.07;;
15889;SDS011;8043;49.388;12.128;2023-10-19T04:43:58;18.50;;;9.20;;
15889;SDS011;8043;49.388;12.128;2023-10-19T04:49:01;23.55;;;10.60;;
15889;SDS011;8043;49.388;12.128;2023-10-19T04:54:07;23.25;;;10.65;;
15889;SDS011;8043;49.388;12.128;2023-10-19T04:59:09;22.00;;;10.53;;
15889;SDS011;8043;49.388;12.128;2023-10-19T05:04:12;24.15;;;11.45;;
15889;SDS011;8043;49.388;12.128;2023-10-19T05:09:14;28.62;;;12.18;;
15889;SDS011;8043;49.388;12.128;2023-10-19T05:14:18;21.77;;;11.50;;
15889;SDS011;8043;49.388;12.128;2023-10-19T05:19:21;24.90;;;13.60;;
15889;SDS011;8043;49.388;12.128;2023-10-19T05:24:23;27.73;;;10.75;;
15889;SDS011;8043;49.388;12.128;2023-10-19T05:29:26;26.15;;;12.28;;
15889;SDS011;8043;49.388;12.128;2023-10-19T05:34:30;24.32;;;11.35;;
15889;SDS011;8043;49.388;12.128;2023-10-19T05:39:39;24.45;;;11.03;;
15889;SDS011;8043;49.388;12.128;2023-10-19T05:44:41;25.23;;;11.30;;
15889;SDS011;8043;49.388;12.128;2023-10-19T05:49:44;30.43;;;12.45;;
15889;SDS011;8043;49.388;12.128;2023-10-19T05:54:46;26.17;;;12.50;;
15889;SDS011;8043;49.388;12.128;2023-10-19T05:59:50;29.67;;;12.40;;
15889;SDS011;8043;49.388;12.128;2023-10-19T06:04:54;32.73;;;14.93;;
15889;SDS011;8043;49.388;12.128;2023-10-19T06:09:57;21.57;;;10.28;;
15889;SDS011;8043;49.388;12.128;2023-10-19T06:15:01;18.55;;;9.18;;
15889;SDS011;8043;49.388;12.128;2023-10-19T06:20:05;19.42;;;10.38;;
15889;SDS011;8043;49.388;12.128;2023-10-19T06:25:09;28.95;;;12.07;;
15889;SDS011;8043;49.388;12.128;2023-10-19T06:30:12;27.30;;;12.35;;
15889;SDS011;8043;49.388;12.128;2023-10-19T06:35:17;21.93;;;10.10;;
15889;SDS011;8043;49.388;12.128;2023-10-19T06:40:20;25.20;;;13.28;;
15889;SDS011;8043;49.388;12.128;2023-10-19T06:45:22;27.95;;;11.80;;
15889;SDS011;8043;49.388;12.128;2023-10-19T06:50:26;28.40;;;12.75;;
15889;SDS011;8043;49.388;12.128;2023-10-19T06:55:28;26.30;;;12.95;;
15889;SDS011;8043;49.388;12.128;2023-10-19T07:00:31;19.40;;;11.57;;
15889;SDS011;8043;49.388;12.128;2023-10-19T07:05:34;26.05;;;13.03;;
15889;SDS011;8043;49.388;12.128;2023-10-19T07:10:37;22.62;;;10.30;;
15889;SDS011;8043;49.388;12.128;2023-10-19T07:15:39;23.42;;;10.28;;
15889;SDS011;8043;49.388;12.128;2023-10-19T07:25:44;23.60;;;11.15;;
15889;SDS011;8043;49.388;12.128;2023-10-19T07:30:48;27.77;;;13.70;;
15889;SDS011;8043;49.388;12.128;2023-10-19T07:35:52;25.52;;;12.00;;
15889;SDS011;8043;49.388;12.128;2023-10-19T07:40:59;22.42;;;10.93;;
15889;SDS011;8043;49.388;12.128;2023-10-19T07:46:01;22.02;;;9.10;;
15889;SDS011;8043;49.388;12.128;2023-10-19T07:51:04;21.82;;;9.08;;
15889;SDS011;8043;49.388;12.128;2023-10-19T08:01:08;23.18;;;10.40;;
15889;SDS011;8043;49.388;12.128;2023-10-19T08:06:12;26.50;;;10.18;;
15889;SDS011;8043;49.388;12.128;2023-10-19T08:11:15;14.03;;;8.83;;
15889;SDS011;8043;49.388;12.128;2023-10-19T08:16:17;15.15;;;8.68;;
15889;SDS011;8043;49.388;12.128;2023-10-19T08:21:21;20.68;;;10.28;;
15889;SDS011;8043;49.388;12.128;2023-10-19T08:26:23;21.75;;;9.15;;
15889;SDS011;8043;49.388;12.128;2023-10-19T08:31:26;22.13;;;9.83;;
15889;SDS011;8043;49.388;12.128;2023-10-19T08:36:28;17.77;;;7.97;;
15889;SDS011;8043;49.388;12.128;2023-10-19T08:41:31;20.75;;;7.72;;
15889;SDS011;8043;49.388;12.128;2023-10-19T08:46:46;24.43;;;9.35;;
15889;SDS011;8043;49.388;12.128;2023-10-19T08:51:46;17.35;;;9.20;;
15889;SDS011;8043;49.388;12.128;2023-10-19T08:56:48;15.40;;;8.28;;
15889;SDS011;8043;49.388;12.128;2023-10-19T09:01:51;19.67;;;8.48;;
15889;SDS011;8043;49.388;12.128;2023-10-19T09:06:56;14.83;;;7.53;;
15889;SDS011;8043;49.388;12.128;2023-10-19T09:12:00;13.90;;;7.92;;
15889;SDS011;8043;49.388;12.128;2023-10-19T09:17:03;13.08;;;7.65;;
15889;SDS011;8043;49.388;12.128;2023-10-19T09:22:09;14.18;;;7.55;;
15889;SDS011;8043;49.388;12.128;2023-10-19T09:27:22;18.07;;;8.45;;
15889;SDS011;8043;49.388;12.128;2023-10-19T09:32:26;16.23;;;7.85;;
15889;SDS011;8043;49.388;12.128;2023-10-19T09:37:33;18.25;;;8.60;;
15889;SDS011;8043;49.388;12.128;2023-10-19T09:42:36;21.52;;;9.03;;
15889;SDS011;8043;49.388;12.128;2023-10-19T09:47:41;17.25;;;8.68;;
15889;SDS011;8043;49.388;12.128;2023-10-19T09:52:46;20.90;;;8.08;;
15889;SDS011;8043;49.388;12.128;2023-10-19T09:57:50;13.45;;;7.87;;
15889;SDS011;8043;49.388;12.128;2023-10-19T10:02:57;16.95;;;7.55;;
15889;SDS011;8043;49.388;12.128;2023-10-19T10:18:33;14.47;;;7.43;;
15889;SDS011;8043;49.388;12.128;2023-10-19T10:23:39;18.40;;;7.42;;
15889;SDS011;8043;49.388;12.128;2023-10-19T10:28:47;24.40;;;8.18;;
15889;SDS011;8043;49.388;12.128;2023-10-19T10:33:51;29.45;;;9.18;;
15889;SDS011;8043;49.388;12.128;2023-10-19T10:38:56;18.55;;;8.80;;
15889;SDS011;8043;49.388;12.128;2023-10-19T10:44:01;17.98;;;8.28;;
15889;SDS011;8043;49.388;12.128;2023-10-19T10:49:07;18.53;;;8.17;;
15889;SDS011;8043;49.388;12.128;2023-10-19T10:54:12;14.53;;;7.95;;
15889;SDS011;8043;49.388;12.128;2023-10-19T10:59:15;17.48;;;8.28;;
15889;SDS011;8043;49.388;12.128;2023-10-19T11:04:18;23.25;;;7.17;;
15889;SDS011;8043;49.388;12.128;2023-10-19T11:09:22;20.17;;;7.42;;
15889;SDS011;8043;49.388;12.128;2023-10-19T11:14:25;16.97;;;8.45;;
15889;SDS011;8043;49.388;12.128;2023-10-19T11:19:38;18.65;;;7.75;;
15889;SDS011;8043;49.388;12.128;2023-10-19T11:24:40;20.37;;;8.15;;
15889;SDS011;8043;49.388;12.128;2023-10-19T11:29:53;11.60;;;6.92;;
15889;SDS011;8043;49.388;12.128;2023-10-19T11:34:57;15.60;;;8.60;;
15889;SDS011;8043;49.388;12.128;2023-10-19T11:39:59;14.98;;;8.00;;
15889;SDS011;8043;49.388;12.128;2023-10-19T11:45:02;14.73;;;8.18;;
15889;SDS011;8043;49.388;12.128;2023-10-19T11:50:07;19.48;;;8.85;;
15889;SDS011;8043;49.388;12.128;2023-10-19T11:55:11;15.88;;;8.80;;
15889;SDS011;8043;49.388;12.128;2023-10-19T12:00:17;17.60;;;8.80;;
15889;SDS011;8043;49.388;12.128;2023-10-19T12:05:26;18.73;;;8.88;;
15889;SDS011;8043;49.388;12.128;2023-10-19T12:10:32;16.00;;;8.33;;
15889;SDS011;8043;49.388;12.128;2023-10-19T12:15:38;17.25;;;8.35;;
15889;SDS011;8043;49.388;12.128;2023-10-19T12:20:41;20.08;;;10.10;;
15889;SDS011;8043;49.388;12.128;2023-10-19T12:25:45;15.83;;;8.53;;
15889;SDS011;8043;49.388;12.128;2023-10-19T12:30:48;18.35;;;8.93;;
15889;SDS011;8043;49.388;12.128;2023-10-19T12:35:51;16.70;;;8.43;;
15889;SDS011;8043;49.388;12.128;2023-10-19T12:40:55;13.98;;;7.72;;
15889;SDS011;8043;49.388;12.128;2023-10-19T12:45:58;18.15;;;8.10;;
15889;SDS011;8043;49.388;12.128;2023-10-19T12:51:01;17.17;;;8.70;;
15889;SDS011;8043;49.388;12.128;2023-10-19T12:56:04;20.27;;;8.63;;
15889;SDS011;8043;49.388;12.128;2023-10-19T13:01:08;14.53;;;7.53;;
15889;SDS011;8043;49.388;12.128;2023-10-19T13:06:13;13.00;;;8.68;;
15889;SDS011;8043;49.388;12.128;2023-10-19T13:11:15;16.60;;;9.10;;
15889;SDS011;8043;49.388;12.128;2023-10-19T13:16:19;18.27;;;8.93;;
15889;SDS011;8043;49.388;12.128;2023-10-19T13:26:24;17.57;;;8.90;;
15889;SDS011;8043;49.388;12.128;2023-10-19T13:31:27;24.82;;;9.85;;
15889;SDS011;8043;49.388;12.128;2023-10-19T13:41:31;15.20;;;8.58;;
15889;SDS011;8043;49.388;12.128;2023-10-19T13:46:34;13.20;;;7.65;;
15889;SDS011;8043;49.388;12.128;2023-10-19T13:51:36;16.95;;;8.90;;
15889;SDS011;8043;49.388;12.128;2023-10-19T13:56:39;16.93;;;9.30;;
15889;SDS011;8043;49.388;12.128;2023-10-19T14:01:42;19.12;;;9.13;;
15889;SDS011;8043;49.388;12.128;2023-10-19T14:06:45;19.73;;;9.35;;
15889;SDS011;8043;49.388;12.128;2023-10-19T14:11:49;16.37;;;8.83;;
15889;SDS011;8043;49.388;12.128;2023-10-19T14:16:51;15.40;;;8.48;;
15889;SDS011;8043;49.388;12.128;2023-10-19T14:21:54;26.00;;;8.18;;
15889;SDS011;8043;49.388;12.128;2023-10-19T14:26:56;19.30;;;8.35;;
15889;SDS011;8043;49.388;12.128;2023-10-19T14:32:00;20.95;;;9.33;;
15889;SDS011;8043;49.388;12.128;2023-10-19T14:37:03;16.90;;;9.23;;
15889;SDS011;8043;49.388;12.128;2023-10-19T14:42:06;16.55;;;8.40;;
15889;SDS011;8043;49.388;12.128;2023-10-19T14:47:09;16.07;;;8.25;;
15889;SDS011;8043;49.388;12.128;2023-10-19T14:52:11;19.65;;;8.98;;
15889;SDS011;8043;49.388;12.128;2023-10-19T14:57:14;22.27;;;9.85;;
15889;SDS011;8043;49.388;12.128;2023-10-19T15:12:21;24.05;;;10.48;;
15889;SDS011;8043;49.388;12.128;2023-10-19T15:17:25;17.07;;;8.90;;
15889;SDS011;8043;49.388;12.128;2023-10-19T15:22:27;16.07;;;9.05;;
15889;SDS011;8043;49.388;12.128;2023-10-19T15:27:31;19.75;;;9.95;;
15889;SDS011;8043;49.388;12.128;2023-10-19T15:32:33;16.37;;;8.60;;
15889;SDS011;8043;49.388;12.128;2023-10-19T15:42:39;19.20;;;8.35;;
15889;SDS011;8043;49.388;12.128;2023-10-19T15:47:44;13.78;;;7.58;;
15889;SDS011;8043;49.388;12.128;2023-10-19T15:52:47;45.50;;;15.88;;
15889;SDS011;8043;49.388;12.128;2023-10-19T15:57:51;28.85;;;12.07;;
15889;SDS011;8043;49.388;12.128;2023-10-19T16:02:58;27.90;;;10.95;;
15889;SDS011;8043;49.388;12.128;2023-10-19T16:08:01;21.80;;;11.18;;
15889;SDS011;8043;49.388;12.128;2023-10-19T16:13:03;26.30;;;12.35;;
15889;SDS011;8043;49.388;12.128;2023-10-19T16:18:07;19.32;;;10.98;;
15889;SDS011;8043;49.388;12.128;2023-10-19T16:23:12;32.50;;;15.53;;
15889;SDS011;8043;49.388;12.128;2023-10-19T16:28:14;27.58;;;13.45;;
15889;SDS011;8043;49.388;12.128;2023-10-19T16:33:17;22.87;;;9.30;;
15889;SDS011;8043;49.388;12.128;2023-10-19T16:43:21;26.50;;;9.48;;
15889;SDS011;8043;49.388;12.128;2023-10-19T16:48:24;21.85;;;9.48;;
15889;SDS011;8043;49.388;12.128;2023-10-19T16:53:27;24.07;;;9.28;;
15889;SDS011;8043;49.388;12.128;2023-10-19T16:58:32;20.57;;;10.38;;
15889;SDS011;8043;49.388;12.128;2023-10-19T17:03:39;17.23;;;9.48;;
15889;SDS011;8043;49.388;12.128;2023-10-19T17:08:41;20.40;;;10.63;;
15889;SDS011;8043;49.388;12.128;2023-10-19T17:13:45;23.83;;;12.40;;
15889;SDS011;8043;49.388;12.128;2023-10-19T17:18:49;25.00;;;11.60;;
15889;SDS011;8043;49.388;12.128;2023-10-19T17:23:51;52.10;;;21.50;;
15889;SDS011;8043;49.388;12.128;2023-10-19T17:28:54;29.72;;;14.58;;
15889;SDS011;8043;49.388;12.128;2023-10-19T17:33:58;30.92;;;14.28;;
15889;SDS011;8043;49.388;12.128;2023-10-19T17:39:02;21.15;;;10.50;;
15889;SDS011;8043;49.388;12.128;2023-10-19T17:44:09;29.75;;;12.43;;
15889;SDS011;8043;49.388;12.128;2023-10-19T17:49:12;28.60;;;13.90;;
15889;SDS011;8043;49.388;12.128;2023-10-19T17:54:16;27.58;;;12.55;;
15889;SDS011;8043;49.388;12.128;2023-10-19T17:59:19;30.10;;;14.60;;
15889;SDS011;8043;49.388;12.128;2023-10-19T18:04:22;28.65;;;12.53;;
15889;SDS011;8043;49.388;12.128;2023-10-19T18:14:27;37.25;;;14.58;;
15889;SDS011;8043;49.388;12.128;2023-10-19T18:19:30;31.80;;;13.78;;
15889;SDS011;8043;49.388;12.128;2023-10-19T18:24:33;56.60;;;22.60;;
15889;SDS011;8043;49.388;12.128;2023-10-19T18:29:35;35.55;;;16.77;;
15889;SDS011;8043;49.388;12.128;2023-10-19T18:34:38;36.53;;;13.50;;
15889;SDS011;8043;49.388;12.128;2023-10-19T18:39:42;28.25;;;14.63;;
15889;SDS011;8043;49.388;12.128;2023-10-19T18:44:45;34.08;;;17.40;;
15889;SDS011;8043;49.388;12.128;2023-10-19T18:49:47;32.55;;;14.73;;
15889;SDS011;8043;49.388;12.128;2023-10-19T18:54:50;33.25;;;15.53;;
15889;SDS011;8043;49.388;12.128;2023-10-19T18:59:52;34.48;;;15.38;;
15889;SDS011;8043;49.388;12.128;2023-10-19T19:04:55;36.15;;;17.52;;
15889;SDS011;8043;49.388;12.128;2023-10-19T19:10:05;40.98;;;16.73;;
15889;SDS011;8043;49.388;12.128;2023-10-19T19:15:08;33.60;;;15.75;;
15889;SDS011;8043;49.388;12.128;2023-10-19T19:20:12;25.00;;;13.32;;
15889;SDS011;8043;49.388;12.128;2023-10-19T19:25:16;25.80;;;12.55;;
15889;SDS011;8043;49.388;12.128;2023-10-19T19:30:18;33.30;;;13.18;;
15889;SDS011;8043;49.388;12.128;2023-10-19T19:35:28;25.12;;;11.65;;
15889;SDS011;8043;49.388;12.128;2023-10-19T19:40:31;29.23;;;13.75;;
15889;SDS011;8043;49.388;12.128;2023-10-19T19:45:34;36.25;;;15.00;;
15889;SDS011;8043;49.388;12.128;2023-10-19T19:50:45;34.83;;;15.30;;
15889;SDS011;8043;49.388;12.128;2023-10-19T19:55:48;41.77;;;16.85;;
15889;SDS011;8043;49.388;12.128;2023-10-19T20:05:57;38.67;;;21.65;;
15889;SDS011;8043;49.388;12.128;2023-10-19T20:10:59;25.40;;;10.88;;
15889;SDS011;8043;49.388;12.128;2023-10-19T20:16:02;28.35;;;11.30;;
15889;SDS011;8043;49.388;12.128;2023-10-19T20:21:05;19.60;;;10.50;;
15889;SDS011;8043;49.388;12.128;2023-10-19T20:26:08;23.60;;;10.30;;
15889;SDS011;8043;49.388;12.128;2023-10-19T20:31:11;20.50;;;10.58;;
15889;SDS011;8043;49.388;12.128;2023-10-19T20:36:15;24.37;;;11.18;;
15889;SDS011;8043;49.388;12.128;2023-10-19T20:41:17;21.80;;;11.43;;
15889;SDS011;8043;49.388;12.128;2023-10-19T20:46:21;26.85;;;12.33;;
15889;SDS011;8043;49.388;12.128;2023-10-19T20:51:23;27.42;;;10.72;;
15889;SDS011;8043;49.388;12.128;2023-10-19T20:56:26;21.12;;;10.80;;
15889;SDS011;8043;49.388;12.128;2023-10-19T21:01:29;28.12;;;11.12;;
15889;SDS011;8043;49.388;12.128;2023-10-19T21:06:33;29.27;;;15.13;;
15889;SDS011;8043;49.388;12.128;2023-10-19T21:11:36;35.50;;;15.72;;
15889;SDS011;8043;49.388;12.128;2023-10-19T21:16:38;32.63;;;16.00;;
15889;SDS011;8043;49.388;12.128;2023-10-19T21:21:41;27.65;;;13.78;;
15889;SDS011;8043;49.388;12.128;2023-10-19T21:26:44;27.58;;;12.70;;
15889;SDS011;8043;49.388;12.128;2023-10-19T21:31:46;25.88;;;12.55;;
15889;SDS011;8043;49.388;12.128;2023-10-19T21:36:49;23.85;;;10.80;;
15889;SDS011;8043;49.388;12.128;2023-10-19T21:41:52;31.93;;;11.53;;
15889;SDS011;8043;49.388;12.128;2023-10-19T21:46:56;24.10;;;10.03;;
15889;SDS011;8043;49.388;12.128;2023-10-19T21:51:58;20.92;;;10.13;;
15889;SDS011;8043;49.388;12.128;2023-10-19T21:57:01;19.90;;;11.33;;
15889;SDS011;8043;49.388;12.128;2023-10-19T22:02:03;20.70;;;9.73;;
15889;SDS011;8043;49.388;12.128;2023-10-19T22:07:06;18.00;;;9.15;;
15889;SDS011;8043;49.388;12.128;2023-10-19T22:17:11;22.07;;;10.55;;
15889;SDS011;8043;49.388;12.128;2023-10-19T22:22:15;23.67;;;10.58;;
15889;SDS011;8043;49.388;12.128;2023-10-19T22:27:17;28.47;;;11.03;;
15889;SDS011;8043;49.388;12.128;2023-10-19T22:32:19;21.37;;;10.80;;
15889;SDS011;8043;49.388;12.128;2023-10-19T22:37:22;22.98;;;10.23;;
15889;SDS011;8043;49.388;12.128;2023-10-19T22:42:25;26.52;;;11.40;;
15889;SDS011;8043;49.388;12.128;2023-10-19T22:47:28;17.00;;;10.05;;
15889;SDS011;8043;49.388;12.128;2023-10-19T22:52:31;24.60;;;10.25;;
15889;SDS011;8043;49.388;12.128;2023-10-19T22:57:33;21.68;;;9.63;;
15889;SDS011;8043;49.388;12.128;2023-10-19T23:02:35;18.45;;;9.33;;
15889;SDS011;8043;49.388;12.128;2023-10-19T23:12:40;26.27;;;11.30;;
15889;SDS011;8043;49.388;12.128;2023-10-19T23:17:43;28.80;;;11.45;;
15889;SDS011;8043;49.388;12.128;2023-10-19T23:22:47;21.55;;;11.10;;
15889;SDS011;8043;49.388;12.128;2023-10-19T23:27:51;19.62;;;10.15;;
15889;SDS011;8043;49.388;12.128;2023-10-19T23:32:53;19.70;;;9.60;;
15889;SDS011;8043;49.388;12.128;2023-10-19T23:37:57;14.40;;;7.90;;
15889;SDS011;8043;49.388;12.128;2023-10-19T23:42:59;19.15;;;9.45;;
15889;SDS011;8043;49.388;12.128;2023-10-19T23:48:02;15.00;;;7.87;;
15889;SDS011;8043;49.388;12.128;2023-10-19T23:53:07;15.32;;;9.05;;
15889;SDS011;8043;49.388;12.128;2023-10-19T23:58:10;13.53;;;7.60;;
